Time;durP1;ratioP1;P1;durP2;ratioP2;P2;SDS_P1;SDS_P2;PMS_P1;PMS_P2;Temp;Humidity;BMP_temperature;BMP_pressure;BME280_temperature;BME280_humidity;BME280_pressure;Samples;Min_cycle;Max_cycle;Signal;HPM_P1;HPM_P2
2023/07/30 00:00:36;;;;;;;5.55;3.45;;;;;;;;;;5013430;28;20053;-80
2023/07/30 00:03:05;;;;;;;7.05;3.70;;;;;;;;;;5014476;28;20490;-80
2023/07/30 00:05:32;;;;;;;7.30;4.33;;;;;;;;;;5013522;28;20054;-80
2023/07/30 00:07:59;;;;;;;5.20;3.10;;;;;;;;;;5027829;28;20483;-80
2023/07/30 00:10:25;;;;;;;5.88;3.38;;;;;;;;;;5037677;28;20053;-80
2023/07/30 00:12:52;;;;;;;4.95;3.20;;;;;;;;;;5053412;28;20059;-80
2023/07/30 00:15:19;;;;;;;8.35;4.20;;;;;;;;;;5050896;28;20064;-81
2023/07/30 00:17:46;;;;;;;5.60;3.45;;;;;;;;;;5053205;28;20088;-80
2023/07/30 00:20:14;;;;;;;7.57;3.25;;;;;;;;;;5048069;28;20072;-81
2023/07/30 00:22:41;;;;;;;6.25;3.58;;;;;;;;;;5013529;28;20061;-80
2023/07/30 00:25:08;;;;;;;7.20;3.00;;;;;;;;;;5013690;28;20487;-81
2023/07/30 00:27:35;;;;;;;5.43;3.05;;;;;;;;;;5013400;28;20058;-80
2023/07/30 00:30:02;;;;;;;9.27;3.90;;;;;;;;;;5013068;28;20058;-81
2023/07/30 00:32:29;;;;;;;5.70;3.20;;;;;;;;;;5014170;28;20062;-80
2023/07/30 00:34:55;;;;;;;6.72;3.38;;;;;;;;;;5013390;28;20061;-81
2023/07/30 00:37:24;;;;;;;4.85;2.90;;;;;;;;;;5012886;28;20058;-81
2023/07/30 00:39:50;;;;;;;7.03;3.60;;;;;;;;;;5012846;28;20076;-81
2023/07/30 00:42:17;;;;;;;6.32;3.55;;;;;;;;;;5051269;28;20053;-81
2023/07/30 00:44:44;;;;;;;6.88;3.33;;;;;;;;;;5052969;28;20482;-81
2023/07/30 00:47:11;;;;;;;9.27;3.58;;;;;;;;;;5018933;28;20446;-81
2023/07/30 00:49:38;;;;;;;6.43;3.33;;;;;;;;;;5013272;28;20153;-81
2023/07/30 00:52:06;;;;;;;8.75;3.72;;;;;;;;;;5021806;28;20487;-81
2023/07/30 00:54:34;;;;;;;6.85;3.22;;;;;;;;;;5033188;28;20053;-80
2023/07/30 00:57:06;;;;;;;8.35;4.00;;;;;;;;;;5033126;28;20059;-81
2023/07/30 00:59:35;;;;;;;8.40;4.55;;;;;;;;;;5033359;28;20466;-81
2023/07/30 01:02:05;;;;;;;6.07;3.33;;;;;;;;;;5032109;28;20049;-79
2023/07/30 01:04:32;;;;;;;5.82;3.85;;;;;;;;;;5032429;28;20053;-79
2023/07/30 01:07:01;;;;;;;7.03;3.80;;;;;;;;;;5032826;28;20053;-79
2023/07/30 01:09:28;;;;;;;7.47;3.60;;;;;;;;;;5032728;28;20065;-79
2023/07/30 01:12:02;;;;;;;5.47;3.25;;;;;;;;;;5032166;28;20049;-79
2023/07/30 01:14:31;;;;;;;7.30;3.72;;;;;;;;;;5032775;28;20054;-79
2023/07/30 01:16:58;;;;;;;10.23;3.97;;;;;;;;;;5020974;28;20060;-79
2023/07/30 01:19:25;;;;;;;6.53;3.55;;;;;;;;;;5016302;28;20057;-79
2023/07/30 01:21:53;;;;;;;5.90;3.60;;;;;;;;;;5017037;28;20073;-80
2023/07/30 01:24:20;;;;;;;7.65;4.05;;;;;;;;;;5039139;28;20431;-78
2023/07/30 01:26:49;;;;;;;8.63;4.05;;;;;;;;;;5016353;28;20066;-79
2023/07/30 01:29:22;;;;;;;6.70;3.90;;;;;;;;;;5016493;28;20068;-78
2023/07/30 01:31:53;;;;;;;7.00;4.20;;;;;;;;;;5015799;28;20057;-79
2023/07/30 01:34:19;;;;;;;7.70;4.22;;;;;;;;;;5016506;28;20065;-78
2023/07/30 01:36:47;;;;;;;6.90;4.07;;;;;;;;;;5016429;28;20061;-78
2023/07/30 01:39:15;;;;;;;7.82;4.65;;;;;;;;;;5050394;28;20394;-78
2023/07/30 01:41:42;;;;;;;9.02;4.60;;;;;;;;;;5056154;28;20057;-78
2023/07/30 01:44:12;;;;;;;7.97;4.55;;;;;;;;;;5055761;28;20053;-78
2023/07/30 01:46:39;;;;;;;8.48;4.20;;;;;;;;;;5040077;28;20072;-78
2023/07/30 01:49:06;;;;;;;7.18;4.50;;;;;;;;;;5032853;28;20064;-78
2023/07/30 01:51:33;;;;;;;7.93;4.95;;;;;;;;;;5034953;28;20050;-78
2023/07/30 01:54:01;;;;;;;6.55;4.90;;;;;;;;;;5037436;28;20053;-78
2023/07/30 01:56:29;;;;;;;8.90;4.82;;;;;;;;;;5056129;28;20064;-78
2023/07/30 01:58:56;;;;;;;10.65;4.63;;;;;;;;;;5055629;28;20441;-79
2023/07/30 02:01:22;;;;;;;8.75;4.30;;;;;;;;;;5048509;28;20399;-81
2023/07/30 02:03:49;;;;;;;7.05;4.38;;;;;;;;;;5038648;28;20064;-80
2023/07/30 02:06:16;;;;;;;8.93;4.68;;;;;;;;;;5056051;28;20055;-80
2023/07/30 02:08:43;;;;;;;13.35;5.07;;;;;;;;;;5055754;28;20437;-80
2023/07/30 02:11:10;;;;;;;9.82;4.55;;;;;;;;;;5055432;28;20397;-79
2023/07/30 02:13:39;;;;;;;8.30;4.70;;;;;;;;;;5054383;28;20057;-80
2023/07/30 02:16:05;;;;;;;8.30;4.80;;;;;;;;;;5055809;28;20049;-80
2023/07/30 02:18:35;;;;;;;11.45;6.13;;;;;;;;;;5020197;28;20057;-79
2023/07/30 02:21:05;;;;;;;6.40;4.28;;;;;;;;;;5035648;28;20053;-79
2023/07/30 02:23:31;;;;;;;9.25;4.93;;;;;;;;;;5035656;28;20056;-78
2023/07/30 02:25:58;;;;;;;7.43;4.25;;;;;;;;;;5035850;28;20536;-80
2023/07/30 02:28:25;;;;;;;8.48;4.65;;;;;;;;;;5035501;28;20053;-79
2023/07/30 02:30:53;;;;;;;7.57;4.35;;;;;;;;;;5034469;28;20057;-78
2023/07/30 02:33:22;;;;;;;6.30;4.72;;;;;;;;;;5019049;28;20498;-79
2023/07/30 02:35:49;;;;;;;8.27;4.60;;;;;;;;;;5015631;28;20418;-79
2023/07/30 02:38:16;;;;;;;9.18;4.85;;;;;;;;;;5015496;28;20426;-80
2023/07/30 02:40:42;;;;;;;8.80;4.90;;;;;;;;;;5029678;28;20052;-78
2023/07/30 02:43:09;;;;;;;7.60;4.20;;;;;;;;;;5055199;28;20056;-77
2023/07/30 02:45:36;;;;;;;5.75;4.43;;;;;;;;;;5054677;28;20056;-77
2023/07/30 02:48:04;;;;;;;11.85;5.10;;;;;;;;;;5040152;28;20049;-78
2023/07/30 02:50:31;;;;;;;7.35;4.40;;;;;;;;;;5034834;28;20075;-78
2023/07/30 02:52:58;;;;;;;7.45;4.07;;;;;;;;;;5034613;28;20482;-78
2023/07/30 02:55:25;;;;;;;8.25;4.68;;;;;;;;;;5026548;28;20058;-77
2023/07/30 02:57:51;;;;;;;7.57;4.18;;;;;;;;;;5035016;28;20073;-78
2023/07/30 03:00:18;;;;;;;8.23;5.25;;;;;;;;;;5035254;28;20057;-77
2023/07/30 03:02:45;;;;;;;7.50;4.45;;;;;;;;;;5024766;28;20410;-79
2023/07/30 03:05:13;;;;;;;9.80;4.80;;;;;;;;;;5014713;28;20053;-79
2023/07/30 03:07:40;;;;;;;7.63;4.90;;;;;;;;;;5015033;28;20049;-78
2023/07/30 03:10:07;;;;;;;7.30;4.40;;;;;;;;;;5014563;28;20053;-78
2023/07/30 03:12:34;;;;;;;9.35;5.18;;;;;;;;;;5014976;28;20053;-78
2023/07/30 03:15:01;;;;;;;10.00;4.82;;;;;;;;;;5014841;28;20057;-78
2023/07/30 03:17:27;;;;;;;10.93;4.82;;;;;;;;;;5044178;28;20053;-78
2023/07/30 03:19:54;;;;;;;11.90;5.28;;;;;;;;;;5015338;28;20065;-79
2023/07/30 03:22:22;;;;;;;7.70;4.65;;;;;;;;;;5020836;28;20052;-79
2023/07/30 03:24:51;;;;;;;7.95;4.75;;;;;;;;;;5035027;28;20062;-78
2023/07/30 03:27:18;;;;;;;9.55;4.75;;;;;;;;;;5034484;28;20380;-79
2023/07/30 03:29:45;;;;;;;8.68;4.60;;;;;;;;;;5040381;28;20080;-79
2023/07/30 03:32:11;;;;;;;8.40;4.50;;;;;;;;;;5044017;28;20049;-79
2023/07/30 03:34:38;;;;;;;8.07;4.35;;;;;;;;;;5054235;28;20059;-79
2023/07/30 03:37:05;;;;;;;8.27;4.50;;;;;;;;;;5041779;28;20053;-78
2023/07/30 03:39:34;;;;;;;8.80;4.43;;;;;;;;;;5022336;28;20069;-79
2023/07/30 03:42:01;;;;;;;7.75;4.40;;;;;;;;;;5013686;28;20487;-79
2023/07/30 03:44:28;;;;;;;6.90;4.80;;;;;;;;;;5014032;28;20062;-80
2023/07/30 03:46:55;;;;;;;7.03;3.97;;;;;;;;;;5014867;28;20061;-79
2023/07/30 03:49:22;;;;;;;7.35;4.50;;;;;;;;;;5032793;28;20060;-79
2023/07/30 03:51:49;;;;;;;5.18;4.00;;;;;;;;;;5033691;28;20054;-79
2023/07/30 03:54:19;;;;;;;7.63;3.70;;;;;;;;;;5033826;28;20060;-79
2023/07/30 03:56:49;;;;;;;8.07;3.92;;;;;;;;;;5033739;28;20060;-80
2023/07/30 03:59:16;;;;;;;6.97;4.03;;;;;;;;;;5033943;28;20053;-80
2023/07/30 04:01:43;;;;;;;7.15;3.78;;;;;;;;;;5033202;28;20044;-79
2023/07/30 04:04:10;;;;;;;6.55;3.60;;;;;;;;;;5045814;28;20064;-80
2023/07/30 04:06:38;;;;;;;8.95;3.45;;;;;;;;;;5014124;28;20057;-79
2023/07/30 04:09:05;;;;;;;8.77;4.15;;;;;;;;;;5043701;28;20041;-78
2023/07/30 04:11:32;;;;;;;7.13;3.25;;;;;;;;;;5053126;28;20413;-78
2023/07/30 04:14:00;;;;;;;7.65;3.60;;;;;;;;;;5053431;28;20441;-78
2023/07/30 04:16:29;;;;;;;8.40;4.05;;;;;;;;;;5037126;28;20082;-77
2023/07/30 04:18:56;;;;;;;7.65;4.00;;;;;;;;;;5013193;28;20053;-79
2023/07/30 04:21:23;;;;;;;8.30;4.10;;;;;;;;;;5013668;28;20057;-79
2023/07/30 04:23:50;;;;;;;4.93;3.50;;;;;;;;;;5013569;28;20399;-79
2023/07/30 04:26:17;;;;;;;9.45;4.38;;;;;;;;;;5013515;28;20410;-78
2023/07/30 04:28:44;;;;;;;5.85;3.60;;;;;;;;;;5013545;28;20050;-79
2023/07/30 04:31:14;;;;;;;8.75;4.22;;;;;;;;;;5011390;28;20050;-78
2023/07/30 04:33:41;;;;;;;7.53;3.53;;;;;;;;;;5013086;28;20415;-79
2023/07/30 04:36:10;;;;;;;8.35;4.10;;;;;;;;;;5013406;28;20058;-79
2023/07/30 04:38:37;;;;;;;8.30;4.00;;;;;;;;;;5013092;28;20050;-78
2023/07/30 04:41:06;;;;;;;6.63;3.28;;;;;;;;;;5013648;28;20054;-78
2023/07/30 04:43:39;;;;;;;7.75;3.10;;;;;;;;;;5013223;28;20383;-78
2023/07/30 04:46:09;;;;;;;7.70;3.45;;;;;;;;;;5019706;28;20057;-79
2023/07/30 04:48:38;;;;;;;10.00;4.00;;;;;;;;;;5018485;28;20064;-79
2023/07/30 04:51:04;;;;;;;11.70;3.20;;;;;;;;;;5013185;28;20054;-79
2023/07/30 04:53:34;;;;;;;8.27;3.55;;;;;;;;;;5012125;28;20050;-79
2023/07/30 04:56:01;;;;;;;6.03;3.80;;;;;;;;;;5013367;28;20050;-79
2023/07/30 04:58:28;;;;;;;9.65;3.67;;;;;;;;;;5012924;28;20446;-78
2023/07/30 05:00:55;;;;;;;6.40;3.88;;;;;;;;;;5012993;28;20054;-79
2023/07/30 05:03:22;;;;;;;8.40;3.78;;;;;;;;;;5022495;28;20065;-79
2023/07/30 05:05:50;;;;;;;10.85;3.58;;;;;;;;;;5046626;28;20056;-78
2023/07/30 05:08:16;;;;;;;5.10;3.22;;;;;;;;;;5044838;28;20060;-79
2023/07/30 05:10:43;;;;;;;7.53;3.50;;;;;;;;;;5032809;28;20050;-78
2023/07/30 05:13:13;;;;;;;8.18;3.63;;;;;;;;;;5032126;28;20386;-78
2023/07/30 05:15:40;;;;;;;7.18;3.38;;;;;;;;;;5032670;28;20080;-78
2023/07/30 05:18:07;;;;;;;6.90;3.60;;;;;;;;;;5028713;28;20478;-78
2023/07/30 05:20:33;;;;;;;6.20;3.60;;;;;;;;;;5032858;28;20053;-79
2023/07/30 05:23:07;;;;;;;7.40;3.70;;;;;;;;;;5032505;28;20050;-78
2023/07/30 05:25:34;;;;;;;6.13;2.78;;;;;;;;;;5032732;28;20086;-78
2023/07/30 05:28:04;;;;;;;6.78;3.20;;;;;;;;;;5032266;28;20076;-77
2023/07/30 05:30:34;;;;;;;5.10;2.45;;;;;;;;;;5032547;28;20050;-79
2023/07/30 05:33:01;;;;;;;7.35;2.80;;;;;;;;;;5044616;28;20049;-78
2023/07/30 05:35:28;;;;;;;6.18;3.00;;;;;;;;;;5051949;28;20382;-78
2023/07/30 05:37:58;;;;;;;9.40;3.28;;;;;;;;;;5051961;28;20053;-78
2023/07/30 05:40:26;;;;;;;8.10;2.60;;;;;;;;;;5031049;28;20052;-78
2023/07/30 05:42:53;;;;;;;11.30;3.55;;;;;;;;;;5032635;28;20486;-78
2023/07/30 05:45:19;;;;;;;7.13;2.83;;;;;;;;;;5032539;28;20065;-78
2023/07/30 05:47:46;;;;;;;6.15;2.70;;;;;;;;;;5017051;28;20052;-77
2023/07/30 05:50:13;;;;;;;7.43;2.72;;;;;;;;;;5012767;28;20065;-77
2023/07/30 05:52:40;;;;;;;7.38;2.50;;;;;;;;;;5012437;28;20081;-77
2023/07/30 05:55:07;;;;;;;8.57;2.70;;;;;;;;;;5012358;28;20069;-77
2023/07/30 05:57:36;;;;;;;6.50;2.88;;;;;;;;;;5012461;28;20069;-78
2023/07/30 06:00:03;;;;;;;5.88;2.45;;;;;;;;;;5012800;28;20064;-79
2023/07/30 06:02:30;;;;;;;6.05;2.40;;;;;;;;;;5036316;28;20409;-78
2023/07/30 06:04:56;;;;;;;5.93;2.35;;;;;;;;;;5053136;28;20067;-77
2023/07/30 06:07:23;;;;;;;6.70;2.45;;;;;;;;;;5055310;28;20053;-77
2023/07/30 06:09:50;;;;;;;7.85;2.90;;;;;;;;;;5039940;28;20076;-77
2023/07/30 06:12:17;;;;;;;5.65;2.42;;;;;;;;;;5054206;28;20056;-78
2023/07/30 06:14:45;;;;;;;7.25;2.40;;;;;;;;;;5055620;28;20478;-77
2023/07/30 06:17:12;;;;;;;9.68;2.78;;;;;;;;;;5047779;28;20056;-77
2023/07/30 06:19:39;;;;;;;6.13;2.67;;;;;;;;;;5054320;28;20375;-77
2023/07/30 06:22:06;;;;;;;7.10;3.08;;;;;;;;;;5055533;28;20053;-77
2023/07/30 06:24:33;;;;;;;7.03;2.58;;;;;;;;;;5055111;28;20049;-77
2023/07/30 06:27:00;;;;;;;8.40;2.47;;;;;;;;;;5055896;28;20512;-77
2023/07/30 06:29:26;;;;;;;5.75;2.53;;;;;;;;;;5055167;28;20053;-78
2023/07/30 06:31:54;;;;;;;7.55;2.85;;;;;;;;;;5048081;28;20071;-77
2023/07/30 06:34:21;;;;;;;8.52;2.70;;;;;;;;;;5055213;28;20045;-77
2023/07/30 06:36:48;;;;;;;9.43;2.90;;;;;;;;;;5055008;28;20509;-77
2023/07/30 06:39:15;;;;;;;6.03;2.42;;;;;;;;;;5055090;28;20393;-77
2023/07/30 06:41:42;;;;;;;5.78;2.30;;;;;;;;;;5054934;28;20079;-77
2023/07/30 06:44:09;;;;;;;6.88;2.50;;;;;;;;;;5054898;28;20049;-78
2023/07/30 06:46:36;;;;;;;7.38;2.85;;;;;;;;;;5047942;28;20477;-77
2023/07/30 06:49:05;;;;;;;8.05;2.85;;;;;;;;;;5055238;28;20430;-77
2023/07/30 06:51:31;;;;;;;6.10;2.53;;;;;;;;;;5054378;28;20093;-77
2023/07/30 06:53:58;;;;;;;4.93;2.20;;;;;;;;;;5054976;28;20051;-78
2023/07/30 06:56:25;;;;;;;5.93;2.10;;;;;;;;;;5054562;28;20064;-77
2023/07/30 06:58:52;;;;;;;7.05;2.17;;;;;;;;;;5054333;28;20057;-77
2023/07/30 07:01:18;;;;;;;5.68;2.03;;;;;;;;;;5049117;28;20410;-78
2023/07/30 07:03:45;;;;;;;6.85;2.70;;;;;;;;;;5047354;28;20053;-78
2023/07/30 07:06:13;;;;;;;5.68;2.40;;;;;;;;;;5054299;28;20132;-78
2023/07/30 07:08:40;;;;;;;5.55;2.35;;;;;;;;;;5043936;28;20061;-79
2023/07/30 07:11:07;;;;;;;9.30;2.63;;;;;;;;;;5034331;28;20054;-79
2023/07/30 07:13:34;;;;;;;7.68;2.50;;;;;;;;;;5046713;28;20363;-78
2023/07/30 07:16:01;;;;;;;9.27;2.78;;;;;;;;;;5044576;28;20049;-78
2023/07/30 07:18:27;;;;;;;5.65;2.58;;;;;;;;;;5043173;28;20057;-76
2023/07/30 07:20:54;;;;;;;7.13;2.70;;;;;;;;;;5042932;28;20053;-78
2023/07/30 07:23:22;;;;;;;6.70;2.40;;;;;;;;;;5040346;28;20398;-77
2023/07/30 07:25:49;;;;;;;6.80;2.60;;;;;;;;;;5048988;28;20049;-80
2023/07/30 07:28:17;;;;;;;8.48;4.28;;;;;;;;;;5034569;28;20065;-78
2023/07/30 07:30:44;;;;;;;13.07;8.43;;;;;;;;;;5035818;28;20049;-77
2023/07/30 07:33:12;;;;;;;6.97;2.60;;;;;;;;;;5054935;28;20060;-77
2023/07/30 07:35:39;;;;;;;9.55;3.13;;;;;;;;;;5038151;28;20057;-77
2023/07/30 07:38:06;;;;;;;8.88;2.85;;;;;;;;;;5021675;28;20060;-77
2023/07/30 07:40:39;;;;;;;9.43;2.92;;;;;;;;;;5024799;28;20062;-77
2023/07/30 07:43:06;;;;;;;6.93;3.30;;;;;;;;;;5040508;28;20052;-77
2023/07/30 07:45:32;;;;;;;9.93;3.38;;;;;;;;;;5023728;28;20425;-77
2023/07/30 07:47:59;;;;;;;12.93;3.55;;;;;;;;;;5054935;28;20075;-77
2023/07/30 07:50:26;;;;;;;6.63;3.25;;;;;;;;;;5054619;28;20060;-76
2023/07/30 07:52:53;;;;;;;7.40;3.20;;;;;;;;;;5054672;28;20052;-77
2023/07/30 07:55:20;;;;;;;10.10;3.65;;;;;;;;;;5049794;28;20056;-77
2023/07/30 07:57:48;;;;;;;5.95;2.92;;;;;;;;;;5033856;28;20068;-77
2023/07/30 08:00:15;;;;;;;8.93;2.90;;;;;;;;;;5059627;28;20055;-78
2023/07/30 08:02:42;;;;;;;10.25;3.25;;;;;;;;;;5051862;28;20064;-78
2023/07/30 08:05:08;;;;;;;9.15;3.05;;;;;;;;;;5051728;28;20068;-78
2023/07/30 08:07:35;;;;;;;8.13;2.75;;;;;;;;;;5047310;28;20076;-79
2023/07/30 08:10:02;;;;;;;7.75;3.00;;;;;;;;;;5028045;28;20057;-78
2023/07/30 08:12:32;;;;;;;8.43;3.42;;;;;;;;;;5031498;28;20053;-79
2023/07/30 08:15:00;;;;;;;9.60;3.08;;;;;;;;;;5035257;28;20052;-79
2023/07/30 08:17:27;;;;;;;10.70;3.20;;;;;;;;;;5028322;28;20511;-78
2023/07/30 08:19:54;;;;;;;9.05;3.33;;;;;;;;;;5026602;28;20049;-77
2023/07/30 08:22:20;;;;;;;9.25;3.38;;;;;;;;;;5022327;28;20055;-79
2023/07/30 08:24:47;;;;;;;9.50;3.58;;;;;;;;;;5027091;28;20057;-77
2023/07/30 08:27:14;;;;;;;11.18;3.42;;;;;;;;;;5040680;28;20386;-78
2023/07/30 08:29:41;;;;;;;6.70;2.75;;;;;;;;;;5032616;28;20049;-78
2023/07/30 08:32:09;;;;;;;7.80;2.97;;;;;;;;;;5035033;28;20057;-78
2023/07/30 08:34:36;;;;;;;8.13;2.45;;;;;;;;;;5017979;28;20042;-76
2023/07/30 08:37:03;;;;;;;7.00;2.78;;;;;;;;;;5026148;28;20053;-76
2023/07/30 08:39:33;;;;;;;7.82;2.78;;;;;;;;;;5026672;28;20059;-77
2023/07/30 08:42:00;;;;;;;16.90;10.43;;;;;;;;;;5020406;28;20060;-78
2023/07/30 08:44:27;;;;;;;7.80;3.00;;;;;;;;;;5020526;28;20481;-77
2023/07/30 08:46:54;;;;;;;7.85;2.88;;;;;;;;;;5029818;28;20060;-77
2023/07/30 08:49:22;;;;;;;7.22;2.85;;;;;;;;;;5023989;28;20045;-76
2023/07/30 08:51:52;;;;;;;9.20;2.50;;;;;;;;;;5018117;28;20054;-75
2023/07/30 08:54:20;;;;;;;10.93;3.35;;;;;;;;;;5024282;28;20048;-76
2023/07/30 08:56:48;;;;;;;9.50;2.97;;;;;;;;;;5031431;28;20076;-75
2023/07/30 08:59:16;;;;;;;12.13;3.08;;;;;;;;;;5027898;28;20045;-76
2023/07/30 09:01:44;;;;;;;7.53;2.17;;;;;;;;;;5036326;28;20056;-76
2023/07/30 09:04:11;;;;;;;7.30;2.70;;;;;;;;;;5041980;28;20418;-76
2023/07/30 09:06:40;;;;;;;7.80;3.13;;;;;;;;;;5036047;28;20049;-81
2023/07/30 09:09:09;;;;;;;5.85;2.35;;;;;;;;;;5031816;28;20050;-75
2023/07/30 09:11:36;;;;;;;7.80;2.67;;;;;;;;;;5049801;28;20060;-77
2023/07/30 09:14:03;;;;;;;6.55;2.35;;;;;;;;;;5033748;28;20057;-76
2023/07/30 09:16:30;;;;;;;5.55;2.67;;;;;;;;;;5036932;28;20120;-75
2023/07/30 09:18:57;;;;;;;7.25;2.55;;;;;;;;;;5043273;28;20056;-76
2023/07/30 09:21:30;;;;;;;7.72;2.38;;;;;;;;;;5033538;28;20422;-82
2023/07/30 09:24:00;;;;;;;5.95;2.35;;;;;;;;;;5025970;28;20045;-85
2023/07/30 09:26:27;;;;;;;6.38;2.42;;;;;;;;;;5037106;28;20064;-83
2023/07/30 09:28:56;;;;;;;4.68;2.10;;;;;;;;;;5038610;28;20053;-81
2023/07/30 09:31:22;;;;;;;;;;;;;;;;;;5030959;28;20063;-80
2023/07/30 09:33:49;;;;;;;6.00;2.47;;;;;;;;;;5030245;28;19921;-80
2023/07/30 09:36:19;;;;;;;7.13;2.63;;;;;;;;;;5018415;28;20050;-83
2023/07/30 09:38:46;;;;;;;8.20;2.72;;;;;;;;;;5016254;28;20479;-81
2023/07/30 09:41:15;;;;;;;6.28;2.75;;;;;;;;;;5038527;28;20060;-84
2023/07/30 09:43:42;;;;;;;4.68;1.98;;;;;;;;;;5035631;28;20062;-82
2023/07/30 09:46:10;;;;;;;7.20;2.80;;;;;;;;;;5039314;28;20410;-85
2023/07/30 09:48:36;;;;;;;7.70;2.70;;;;;;;;;;5041427;28;20402;-83
2023/07/30 09:51:05;;;;;;;8.00;2.30;;;;;;;;;;5038668;28;20401;-83
2023/07/30 09:53:34;;;;;;;6.88;2.20;;;;;;;;;;5032126;28;20068;-86
2023/07/30 09:56:02;;;;;;;5.45;2.17;;;;;;;;;;5035311;28;20052;-89
2023/07/30 09:58:30;;;;;;;6.57;2.30;;;;;;;;;;5031299;28;20058;-86
2023/07/30 10:00:59;;;;;;;5.63;2.20;;;;;;;;;;5026751;28;20061;-85
2023/07/30 10:03:26;;;;;;;6.70;2.13;;;;;;;;;;5030196;28;20064;-86
2023/07/30 10:05:55;;;;;;;7.60;2.50;;;;;;;;;;5008813;28;20491;-86
2023/07/30 10:08:24;;;;;;;5.95;2.40;;;;;;;;;;5011033;28;20050;-80
2023/07/30 10:10:51;;;;;;;6.22;2.40;;;;;;;;;;5011030;28;20041;-87
2023/07/30 10:13:19;;;;;;;8.15;2.22;;;;;;;;;;5013133;28;20061;-86
2023/07/30 10:15:47;;;;;;;7.50;2.80;;;;;;;;;;5014210;28;20042;-85
2023/07/30 10:18:14;;;;;;;9.00;2.63;;;;;;;;;;5015672;28;20414;-83
2023/07/30 10:20:46;;;;;;;6.25;2.17;;;;;;;;;;5015271;28;20053;-86
2023/07/30 10:23:13;;;;;;;5.82;2.20;;;;;;;;;;5011774;28;20066;-88
2023/07/30 10:25:43;;;;;;;5.68;2.17;;;;;;;;;;5013385;28;20057;-88
2023/07/30 10:28:26;;;;;;;34.40;25.55;;;;;;;;;;5017054;28;20537;-90
2023/07/30 10:30:57;;;;;;;5.38;1.92;;;;;;;;;;5019261;28;20068;-91
2023/07/30 10:33:24;;;;;;;4.93;1.70;;;;;;;;;;5016129;28;20054;-90
2023/07/30 10:35:55;;;;;;;7.55;1.75;;;;;;;;;;5016935;28;20053;-91
2023/07/30 10:38:24;;;;;;;6.28;2.22;;;;;;;;;;5016650;28;20057;-90
2023/07/30 10:41:04;;;;;;;7.65;1.70;;;;;;;;;;5014425;28;20061;-91
2023/07/30 10:43:31;;;;;;;5.45;1.88;;;;;;;;;;5014649;28;20054;-91
2023/07/30 10:45:59;;;;;;;3.75;1.75;;;;;;;;;;5019912;28;20065;-88
2023/07/30 10:48:33;;;;;;;2.83;1.52;;;;;;;;;;5016327;28;20061;-92
2023/07/30 10:51:01;;;;;;;3.25;1.50;;;;;;;;;;5015867;28;20053;-92
2023/07/30 10:53:28;;;;;;;4.03;1.60;;;;;;;;;;5014238;28;20058;-88
2023/07/30 10:55:58;;;;;;;6.55;1.75;;;;;;;;;;5015345;28;20050;-89
2023/07/30 10:58:25;;;;;;;3.42;1.10;;;;;;;;;;5014816;28;20061;-91
2023/07/30 11:00:52;;;;;;;3.80;1.65;;;;;;;;;;5012675;28;20064;-91
2023/07/30 11:03:20;;;;;;;5.82;2.17;;;;;;;;;;5011021;28;20060;-88
2023/07/30 11:05:47;;;;;;;4.28;1.55;;;;;;;;;;5030100;28;20057;-90
2023/07/30 11:08:14;;;;;;;3.45;1.50;;;;;;;;;;5035079;28;20049;-89
2023/07/30 11:10:46;;;;;;;3.85;1.60;;;;;;;;;;5034547;28;20076;-88
2023/07/30 11:13:13;;;;;;;4.35;1.73;;;;;;;;;;5035702;28;20053;-88
2023/07/30 11:15:43;;;;;;;7.05;1.90;;;;;;;;;;5034391;28;20054;-88
2023/07/30 11:18:10;;;;;;;6.68;1.75;;;;;;;;;;5035279;28;20060;-87
2023/07/30 11:20:38;;;;;;;5.47;1.92;;;;;;;;;;5035145;28;20486;-87
2023/07/30 11:23:18;;;;;;;4.18;1.58;;;;;;;;;;5030887;28;20056;-86
2023/07/30 11:25:46;;;;;;;4.07;1.55;;;;;;;;;;5032655;28;20053;-87
2023/07/30 11:28:13;;;;;;;4.53;1.63;;;;;;;;;;5033839;28;20053;-86
2023/07/30 11:30:40;;;;;;;3.97;1.40;;;;;;;;;;5033694;28;20064;-86
2023/07/30 11:33:06;;;;;;;6.30;1.58;;;;;;;;;;5040663;28;20479;-87
2023/07/30 11:35:33;;;;;;;5.38;1.30;;;;;;;;;;5031657;28;20065;-88
2023/07/30 11:38:02;;;;;;;4.70;1.50;;;;;;;;;;5033404;28;20470;-89
2023/07/30 11:40:28;;;;;;;4.05;1.30;;;;;;;;;;5033050;28;20056;-89
2023/07/30 11:42:55;;;;;;;3.05;1.20;;;;;;;;;;5042720;28;20068;-89
2023/07/30 11:45:23;;;;;;;5.13;1.65;;;;;;;;;;5045138;28;20052;-89
2023/07/30 11:47:52;;;;;;;3.88;1.40;;;;;;;;;;5025733;28;20085;-83
2023/07/30 11:50:18;;;;;;;5.32;1.83;;;;;;;;;;5017788;28;20419;-88
2023/07/30 11:52:52;;;;;;;4.63;1.80;;;;;;;;;;5038407;28;20050;-88
2023/07/30 11:55:20;;;;;;;2.65;1.30;;;;;;;;;;5016604;28;20054;-90
2023/07/30 11:57:47;;;;;;;4.22;1.58;;;;;;;;;;5015420;28;20057;-88
2023/07/30 12:00:15;;;;;;;4.38;1.58;;;;;;;;;;5018656;28;20053;-87
2023/07/30 12:02:42;;;;;;;4.70;1.90;;;;;;;;;;5039303;28;20064;-91
2023/07/30 12:05:10;;;;;;;4.68;1.63;;;;;;;;;;5054192;28;20060;-84
2023/07/30 12:07:40;;;;;;;8.15;1.77;;;;;;;;;;5020123;28;20069;-84
2023/07/30 12:10:08;;;;;;;5.38;1.80;;;;;;;;;;5033701;28;20064;-84
2023/07/30 12:12:36;;;;;;;4.05;1.73;;;;;;;;;;5033566;28;20060;-83
2023/07/30 12:15:10;;;;;;;4.35;1.70;;;;;;;;;;5042080;28;20068;-82
2023/07/30 12:17:37;;;;;;;4.93;1.77;;;;;;;;;;5040637;28;20057;-83
2023/07/30 12:20:16;;;;;;;3.22;1.40;;;;;;;;;;5041520;28;20053;-80
2023/07/30 12:22:44;;;;;;;6.65;1.77;;;;;;;;;;5014361;28;20065;-81
2023/07/30 12:25:11;;;;;;;5.82;1.67;;;;;;;;;;5033362;28;20064;-83
2023/07/30 12:27:39;;;;;;;4.63;1.63;;;;;;;;;;5024697;28;20049;-84
2023/07/30 12:30:07;;;;;;;6.30;2.00;;;;;;;;;;5042904;28;20057;-85
2023/07/30 12:32:33;;;;;;;4.32;1.63;;;;;;;;;;5021693;28;20050;-86
2023/07/30 12:35:00;;;;;;;3.60;1.95;;;;;;;;;;5047671;28;20417;-84
2023/07/30 12:37:35;;;;;;;5.47;1.77;;;;;;;;;;5054903;28;20057;-86
2023/07/30 12:40:01;;;;;;;4.97;1.55;;;;;;;;;;5053228;28;20060;-82
2023/07/30 12:42:29;;;;;;;4.65;1.58;;;;;;;;;;5050953;28;20053;-81
2023/07/30 12:44:57;;;;;;;5.20;1.67;;;;;;;;;;5055745;28;20072;-80
2023/07/30 12:50:05;;;;;;;2.95;1.25;;;;;;;;;;5032657;28;20057;-84
2023/07/30 12:52:36;;;;;;;4.32;1.40;;;;;;;;;;5034982;28;20049;-82
2023/07/30 12:55:04;;;;;;;4.55;1.40;;;;;;;;;;5046051;28;20056;-82
2023/07/30 12:57:31;;;;;;;4.73;3.83;;;;;;;;;;5049995;28;20045;-83
2023/07/30 13:00:00;;;;;;;44.88;34.88;;;;;;;;;;5034614;28;20072;-83
2023/07/30 13:02:26;;;;;;;3.38;1.35;;;;;;;;;;5020330;28;20069;-82
2023/07/30 13:04:53;;;;;;;4.93;1.40;;;;;;;;;;5028424;28;20060;-82
2023/07/30 13:07:20;;;;;;;5.00;1.63;;;;;;;;;;5039422;28;20068;-83
2023/07/30 13:09:47;;;;;;;4.05;1.55;;;;;;;;;;5026605;28;20065;-82
2023/07/30 13:12:17;;;;;;;8.40;1.42;;;;;;;;;;5014701;28;20050;-81
2023/07/30 13:14:44;;;;;;;5.55;1.30;;;;;;;;;;5036985;28;20045;-88
2023/07/30 13:17:15;;;;;;;3.03;1.33;;;;;;;;;;5035819;28;20041;-82
2023/07/30 13:19:42;;;;;;;3.28;1.20;;;;;;;;;;5040122;28;20378;-85
2023/07/30 13:22:13;;;;;;;4.72;1.48;;;;;;;;;;5037513;28;20064;-80
2023/07/30 13:24:42;;;;;;;3.75;1.42;;;;;;;;;;5036077;28;20061;-87
2023/07/30 13:27:08;;;;;;;3.67;1.17;;;;;;;;;;5032741;28;20061;-89
2023/07/30 13:29:37;;;;;;;3.00;0.95;;;;;;;;;;5045777;28;20057;-89
2023/07/30 13:32:04;;;;;;;;;;;;;;;;;;5034959;28;20049;-87
2023/07/30 13:34:34;;;;;;;2.65;0.82;;;;;;;;;;5029807;28;19929;-88
2023/07/30 13:37:01;;;;;;;2.63;1.08;;;;;;;;;;5021788;28;20696;-90
2023/07/30 13:39:28;;;;;;;4.22;1.10;;;;;;;;;;5015582;28;20061;-85
2023/07/30 13:41:55;;;;;;;3.53;1.00;;;;;;;;;;5027602;28;20076;-88
2023/07/30 13:44:23;;;;;;;2.40;0.82;;;;;;;;;;5027606;28;20056;-84
2023/07/30 13:46:51;;;;;;;2.78;0.98;;;;;;;;;;5025711;28;20057;-89
2023/07/30 13:49:18;;;;;;;3.67;0.90;;;;;;;;;;5033584;28;20053;-82
2023/07/30 13:51:46;;;;;;;3.60;1.00;;;;;;;;;;5036128;28;20425;-86
2023/07/30 13:54:13;;;;;;;4.43;1.13;;;;;;;;;;5026633;28;20045;-85
2023/07/30 13:56:41;;;;;;;5.28;1.30;;;;;;;;;;5018343;28;20049;-85
2023/07/30 13:59:08;;;;;;;3.30;0.90;;;;;;;;;;5037939;28;20064;-84
2023/07/30 14:01:36;;;;;;;2.30;0.90;;;;;;;;;;5037531;28;20061;-92
2023/07/30 14:04:03;;;;;;;3.35;1.08;;;;;;;;;;5038244;28;20053;-87
2023/07/30 14:06:30;;;;;;;3.35;1.30;;;;;;;;;;5034453;28;20057;-84
2023/07/30 14:09:00;;;;;;;4.68;1.10;;;;;;;;;;5036976;28;20068;-84
2023/07/30 14:11:28;;;;;;;3.25;1.10;;;;;;;;;;5015354;28;20068;-84
2023/07/30 14:13:55;;;;;;;3.47;1.30;;;;;;;;;;5037087;28;20053;-82
2023/07/30 14:16:22;;;;;;;2.70;1.17;;;;;;;;;;5038390;28;20053;-81
2023/07/30 14:18:49;;;;;;;5.28;1.20;;;;;;;;;;5042812;28;20053;-82
2023/07/30 14:21:19;;;;;;;3.25;1.30;;;;;;;;;;5027819;28;20061;-81
2023/07/30 14:23:45;;;;;;;4.05;1.00;;;;;;;;;;5042958;28;20440;-84
2023/07/30 14:26:15;;;;;;;2.05;0.90;;;;;;;;;;5027321;28;20054;-85
2023/07/30 14:28:41;;;;;;;3.72;1.30;;;;;;;;;;5024887;28;20720;-79
2023/07/30 14:31:08;;;;;;;5.40;1.20;;;;;;;;;;5042821;28;20057;-82
2023/07/30 14:33:38;;;;;;;4.00;1.33;;;;;;;;;;5047894;28;20489;-85
2023/07/30 14:36:05;;;;;;;2.63;1.17;;;;;;;;;;5036462;28;20060;-83
2023/07/30 14:38:37;;;;;;;3.50;1.25;;;;;;;;;;5042742;28;20057;-83
2023/07/30 14:41:08;;;;;;;4.68;1.30;;;;;;;;;;5048816;28;20060;-90
2023/07/30 14:43:36;;;;;;;4.05;1.48;;;;;;;;;;5047773;28;20060;-83
2023/07/30 14:46:03;;;;;;;5.23;1.60;;;;;;;;;;5036730;28;20061;-87
2023/07/30 14:48:40;;;;;;;4.50;1.30;;;;;;;;;;5041446;28;20049;-85